createdAt,value
2022-08-27T00:01:22.485Z,10.20
2022-08-27T00:03:50.127Z,9.73
2022-08-27T00:06:19.146Z,13.23
2022-08-27T00:08:46.906Z,7.70
2022-08-27T00:11:14.097Z,7.32
2022-08-27T00:13:41.906Z,8.93
2022-08-27T00:16:10.685Z,8.43
2022-08-27T00:18:38.924Z,9.32
2022-08-27T00:21:06.906Z,11.05
2022-08-27T00:23:35.188Z,11.25
2022-08-27T00:26:02.851Z,11.27
2022-08-27T00:28:30.342Z,7.85
2022-08-27T00:30:57.556Z,8.50
2022-08-27T00:33:25.042Z,9.15
2022-08-27T00:35:52.980Z,7.95
2022-08-27T00:38:22.065Z,7.53
2022-08-27T00:40:49.824Z,9.18
2022-08-27T00:43:31.757Z,8.98
2022-08-27T00:46:15.789Z,8.20
2022-08-27T00:48:42.742Z,11.38
2022-08-27T00:51:09.593Z,13.57
2022-08-27T00:53:36.557Z,8.32
2022-08-27T00:56:17.929Z,8.27
2022-08-27T00:58:51.701Z,11.50
2022-08-27T01:01:24.916Z,12.02
2022-08-27T01:03:55.216Z,7.65
2022-08-27T01:06:25.429Z,8.93
2022-08-27T01:09:04.313Z,8.23
2022-08-27T01:11:31.894Z,8.82
2022-08-27T01:14:00.788Z,9.40
2022-08-27T01:16:41.359Z,11.07
2022-08-27T01:19:20.851Z,7.93
2022-08-27T01:21:57.727Z,8.07
2022-08-27T01:24:36.005Z,8.60
2022-08-27T01:27:05.777Z,7.72
2022-08-27T01:29:35.775Z,8.23
2022-08-27T01:32:14.076Z,8.85
2022-08-27T01:34:40.912Z,10.90
2022-08-27T01:37:09.143Z,10.45
2022-08-27T01:39:39.493Z,11.13
2022-08-27T01:42:11.756Z,8.65
2022-08-27T01:44:54.018Z,10.50
2022-08-27T01:47:22.716Z,10.50
2022-08-27T01:49:58.049Z,10.15
2022-08-27T01:52:27.624Z,9.15
2022-08-27T01:54:54.793Z,9.85
2022-08-27T01:57:25.361Z,9.13
2022-08-27T01:59:52.936Z,10.68
2022-08-27T02:02:19.776Z,8.35
2022-08-27T02:04:46.684Z,11.10
2022-08-27T02:07:13.514Z,8.95
2022-08-27T02:09:40.371Z,8.95
2022-08-27T02:12:07.794Z,6.85
2022-08-27T02:14:35.174Z,10.65
2022-08-27T02:17:02.542Z,9.10
2022-08-27T02:19:29.370Z,7.90
2022-08-27T02:22:00.265Z,11.25
2022-08-27T02:24:30.240Z,10.95
2022-08-27T02:26:57.689Z,10.93
2022-08-27T02:29:25.439Z,7.45
2022-08-27T02:31:52.453Z,8.48
2022-08-27T02:34:19.217Z,8.27
2022-08-27T02:36:46.688Z,9.63
2022-08-27T02:39:13.654Z,8.23
2022-08-27T02:41:40.391Z,9.13
2022-08-27T02:44:10.263Z,9.25
2022-08-27T02:46:38.941Z,6.93
2022-08-27T02:49:06.092Z,6.10
2022-08-27T02:51:33.009Z,7.18
2022-08-27T02:54:01.424Z,7.95
2022-08-27T02:56:29.040Z,8.30
2022-08-27T02:58:56.031Z,8.27
2022-08-27T03:01:22.892Z,6.35
2022-08-27T03:03:49.732Z,10.05
2022-08-27T03:06:16.551Z,7.90
2022-08-27T03:08:52.874Z,7.47
2022-08-27T03:11:23.610Z,5.72
2022-08-27T03:13:50.980Z,5.53
2022-08-27T03:16:18.665Z,5.75
2022-08-27T03:18:45.919Z,5.57
2022-08-27T03:21:21.594Z,7.35
2022-08-27T03:23:51.182Z,6.38
2022-08-27T03:26:19.470Z,5.75
2022-08-27T03:28:46.822Z,7.43
2022-08-27T03:31:17.579Z,7.72
2022-08-27T03:33:44.401Z,6.57
2022-08-27T03:36:11.245Z,5.70
2022-08-27T03:38:38.320Z,7.78
2022-08-27T03:41:06.026Z,7.10
2022-08-27T03:43:33.027Z,5.15
2022-08-27T03:46:01.978Z,9.77
2022-08-27T03:48:32.884Z,6.60
2022-08-27T03:51:05.119Z,6.88
2022-08-27T03:53:31.985Z,6.28
2022-08-27T03:55:58.790Z,6.53
2022-08-27T03:58:26.062Z,5.28
2022-08-27T04:00:53.000Z,6.53
2022-08-27T04:03:19.866Z,6.80
2022-08-27T04:05:51.615Z,6.05
2022-08-27T04:08:18.934Z,6.05
2022-08-27T04:10:46.312Z,7.25
2022-08-27T04:13:13.255Z,5.45
2022-08-27T04:15:44.895Z,7.32
2022-08-27T04:18:12.739Z,5.53
2022-08-27T04:20:39.624Z,4.68
2022-08-27T04:23:06.451Z,5.90
2022-08-27T04:25:33.755Z,6.13
2022-08-27T04:28:00.516Z,6.95
2022-08-27T04:30:27.292Z,5.65
2022-08-27T04:32:54.400Z,6.20
2022-08-27T04:35:21.790Z,7.57
2022-08-27T04:37:48.580Z,5.20
2022-08-27T04:40:15.677Z,4.90
2022-08-27T04:42:42.555Z,5.80
2022-08-27T04:45:09.934Z,4.63
2022-08-27T04:47:37.166Z,5.78
2022-08-27T04:50:05.776Z,5.82
2022-08-27T04:52:32.973Z,5.95
2022-08-27T04:55:00.208Z,7.60
2022-08-27T04:57:27.829Z,8.48
2022-08-27T04:59:54.991Z,6.38
2022-08-27T05:02:21.771Z,7.57
2022-08-27T05:04:48.609Z,9.10
2022-08-27T05:07:15.870Z,5.38
2022-08-27T05:09:43.017Z,5.38
2022-08-27T05:12:10.207Z,8.48
2022-08-27T05:14:37.332Z,6.78
2022-08-27T05:17:04.443Z,6.13
2022-08-27T05:19:31.427Z,7.05
2022-08-27T05:21:58.353Z,7.13
2022-08-27T05:24:25.202Z,7.35
2022-08-27T05:26:52.514Z,6.10
2022-08-27T05:29:19.407Z,18.45
2022-08-27T05:31:48.017Z,19.23
2022-08-27T05:34:22.010Z,12.27
2022-08-27T05:36:54.552Z,9.80
2022-08-27T05:39:21.419Z,9.98
2022-08-27T05:41:48.165Z,7.20
2022-08-27T05:47:04.031Z,10.20
2022-08-27T05:49:31.781Z,6.90
2022-08-27T05:51:58.546Z,14.75
2022-08-27T05:54:25.338Z,10.07
2022-08-27T05:56:52.157Z,11.30
2022-08-27T05:59:38.146Z,7.90
2022-08-27T06:02:06.982Z,13.05
2022-08-27T06:04:34.287Z,10.00
2022-08-27T06:07:01.266Z,9.35
2022-08-27T06:09:31.288Z,10.13
2022-08-27T06:12:00.143Z,8.82
2022-08-27T06:14:27.394Z,8.95
2022-08-27T06:16:54.586Z,10.32
2022-08-27T06:19:22.078Z,10.30
2022-08-27T06:22:00.455Z,6.35
2022-08-27T06:24:36.879Z,16.00
2022-08-27T06:27:05.009Z,14.18
2022-08-27T06:29:32.007Z,10.18
2022-08-27T06:31:58.865Z,8.93
2022-08-27T06:34:25.982Z,5.05
2022-08-27T06:36:53.607Z,7.50
2022-08-27T06:39:20.590Z,9.02
2022-08-27T06:41:50.283Z,9.60
2022-08-27T06:44:17.691Z,6.35
2022-08-27T06:46:44.672Z,6.15
2022-08-27T06:49:12.066Z,7.82
2022-08-27T06:51:40.259Z,6.50
2022-08-27T06:54:10.490Z,5.95
2022-08-27T06:56:37.869Z,12.32
2022-08-27T06:59:11.641Z,7.63
2022-08-27T07:01:42.679Z,14.48
2022-08-27T07:04:12.928Z,9.60
2022-08-27T07:06:41.177Z,8.85
2022-08-27T07:09:09.682Z,11.98
2022-08-27T07:11:38.254Z,11.45
2022-08-27T07:14:07.160Z,13.43
2022-08-27T07:16:34.842Z,9.52
2022-08-27T07:19:04.456Z,12.95
2022-08-27T07:21:33.155Z,10.70
2022-08-27T07:24:04.829Z,12.43
2022-08-27T07:26:34.940Z,11.10
2022-08-27T07:29:02.459Z,10.95
2022-08-27T07:31:29.404Z,12.55
2022-08-27T07:33:56.239Z,11.77
2022-08-27T07:36:24.224Z,11.02
2022-08-27T07:38:56.976Z,11.05
2022-08-27T07:41:31.163Z,10.48
2022-08-27T07:44:18.955Z,9.82
2022-08-27T07:46:48.267Z,11.85
2022-08-27T07:49:16.055Z,8.25
2022-08-27T07:51:42.960Z,13.85
2022-08-27T07:54:09.871Z,6.97
2022-08-27T07:56:36.761Z,7.00
2022-08-27T07:59:03.646Z,10.30
2022-08-27T08:01:30.556Z,10.43
2022-08-27T08:03:57.418Z,9.57
2022-08-27T08:06:24.224Z,10.73
2022-08-27T08:08:51.215Z,8.27
2022-08-27T08:11:18.842Z,8.70
2022-08-27T08:13:47.282Z,11.70
2022-08-27T08:16:14.757Z,9.65
2022-08-27T08:18:41.645Z,10.27
2022-08-27T08:21:13.811Z,10.30
2022-08-27T08:23:42.189Z,12.40
2022-08-27T08:26:10.836Z,13.25
2022-08-27T08:28:37.881Z,10.23
2022-08-27T08:31:05.254Z,10.13
2022-08-27T08:33:32.515Z,9.95
2022-08-27T08:36:18.291Z,11.85
2022-08-27T08:38:46.589Z,13.77
2022-08-27T08:41:31.024Z,10.38
2022-08-27T08:44:03.479Z,10.77
2022-08-27T08:46:55.478Z,10.75
2022-08-27T08:49:29.467Z,13.20
2022-08-27T08:52:02.239Z,13.65
2022-08-27T08:54:32.327Z,14.35
2022-08-27T08:57:08.308Z,11.25
2022-08-27T08:59:41.849Z,10.70
2022-08-27T09:02:13.523Z,9.13
2022-08-27T09:04:44.439Z,10.90
2022-08-27T09:07:14.333Z,9.90
2022-08-27T09:10:13.906Z,13.15
2022-08-27T09:12:41.541Z,10.55
2022-08-27T09:15:18.960Z,8.80
2022-08-27T09:17:47.659Z,10.60
2022-08-27T09:20:19.927Z,8.23
2022-08-27T09:22:50.120Z,8.82
2022-08-27T09:25:25.788Z,8.48
2022-08-27T09:27:55.714Z,10.20
2022-08-27T09:30:30.376Z,8.82
2022-08-27T09:33:06.650Z,11.90
2022-08-27T09:35:42.841Z,9.88
2022-08-27T09:38:10.145Z,13.18
2022-08-27T09:40:49.244Z,16.35
2022-08-27T09:43:16.589Z,14.38
2022-08-27T09:45:56.151Z,28.55
2022-08-27T09:48:35.063Z,23.13
2022-08-27T09:51:14.887Z,12.73
2022-08-27T09:54:00.444Z,13.05
2022-08-27T09:56:34.204Z,15.60
2022-08-27T09:59:03.793Z,15.43
2022-08-27T10:01:32.992Z,16.00
2022-08-27T10:04:51.390Z,15.00
2022-08-27T10:07:27.622Z,15.57
2022-08-27T10:10:21.599Z,9.95
2022-08-27T10:13:10.693Z,10.10
2022-08-27T10:16:05.406Z,10.77
2022-08-27T10:18:32.154Z,11.30
2022-08-27T10:21:05.924Z,13.13
2022-08-27T10:24:06.396Z,8.82
2022-08-27T10:27:18.170Z,9.85
2022-08-27T10:30:02.610Z,9.38
2022-08-27T10:33:14.882Z,11.27
2022-08-27T10:35:57.163Z,9.25
2022-08-27T10:38:45.612Z,10.10
2022-08-27T10:41:22.844Z,10.45
2022-08-27T10:44:11.932Z,8.15
2022-08-27T10:46:50.305Z,9.00
2022-08-27T10:49:43.940Z,12.23
2022-08-27T10:52:26.746Z,6.53
2022-08-27T10:55:12.756Z,9.43
2022-08-27T10:58:05.929Z,7.75
2022-08-27T11:00:45.205Z,6.85
2022-08-27T11:03:50.548Z,7.68
2022-08-27T11:06:38.775Z,7.05
2022-08-27T11:09:17.385Z,8.43
2022-08-27T11:15:01.042Z,7.85
2022-08-27T11:17:36.747Z,5.75
2022-08-27T11:20:16.315Z,6.75
2022-08-27T11:22:47.562Z,7.53
2022-08-27T11:25:26.291Z,7.65
2022-08-27T11:27:55.150Z,7.88
2022-08-27T11:30:49.825Z,6.68
2022-08-27T11:33:31.648Z,4.88
2022-08-27T11:39:05.156Z,7.72
2022-08-27T11:42:09.518Z,9.18
2022-08-27T11:44:46.732Z,5.55
2022-08-27T11:47:23.022Z,6.70
2022-08-27T11:50:01.845Z,6.80
2022-08-27T11:52:29.334Z,7.05
2022-08-27T11:55:22.521Z,8.77
2022-08-27T11:58:02.316Z,6.95
2022-08-27T12:00:35.720Z,6.13
2022-08-27T12:03:22.572Z,9.80
2022-08-27T12:06:04.600Z,5.38
2022-08-27T12:08:34.914Z,5.10
2022-08-27T12:11:08.405Z,6.45
2022-08-27T12:14:08.518Z,5.85
2022-08-27T12:16:56.649Z,7.25
2022-08-27T12:19:31.324Z,9.30
2022-08-27T12:22:16.194Z,7.00
2022-08-27T12:24:56.074Z,5.47
2022-08-27T12:27:25.674Z,6.30
2022-08-27T12:29:56.427Z,5.40
2022-08-27T12:32:34.088Z,6.43
2022-08-27T12:35:04.214Z,6.97
2022-08-27T12:37:36.257Z,6.28
2022-08-27T12:40:15.757Z,6.15
2022-08-27T12:42:46.910Z,7.47
2022-08-27T12:45:25.596Z,7.93
2022-08-27T12:47:55.194Z,8.25
2022-08-27T12:50:30.593Z,6.68
2022-08-27T12:53:14.977Z,6.13
2022-08-27T12:56:19.602Z,8.00
2022-08-27T12:59:11.560Z,6.18
2022-08-27T13:01:53.702Z,7.65
2022-08-27T13:04:26.572Z,7.82
2022-08-27T13:06:53.586Z,11.00
2022-08-27T13:09:34.417Z,10.38
2022-08-27T13:12:04.624Z,9.03
2022-08-27T13:14:40.113Z,7.55
2022-08-27T13:17:20.514Z,7.95
2022-08-27T13:19:58.564Z,7.93
2022-08-27T13:22:35.688Z,8.88
2022-08-27T13:25:02.988Z,9.07
2022-08-27T13:27:36.126Z,6.72
2022-08-27T13:30:19.856Z,6.63
2022-08-27T13:33:01.312Z,6.95
2022-08-27T13:35:32.375Z,6.47
2022-08-27T13:38:00.068Z,7.20
2022-08-27T13:40:31.722Z,7.40
2022-08-27T13:43:08.756Z,9.18
2022-08-27T13:45:38.828Z,7.03
2022-08-27T13:48:06.444Z,15.90
2022-08-27T13:50:35.468Z,11.82
2022-08-27T13:53:27.748Z,6.70
2022-08-27T13:55:56.955Z,6.90
2022-08-27T13:58:27.532Z,6.65
2022-08-27T14:00:54.924Z,6.93
2022-08-27T14:03:33.139Z,6.07
2022-08-27T14:06:00.890Z,9.73
2022-08-27T14:08:33.270Z,6.20
2022-08-27T14:11:05.798Z,5.63
2022-08-27T14:13:45.931Z,5.57
2022-08-27T14:16:31.308Z,7.25
2022-08-27T14:19:36.460Z,10.10
2022-08-27T14:22:04.412Z,7.25
2022-08-27T14:24:31.308Z,8.77
2022-08-27T14:27:07.903Z,6.15
2022-08-27T14:29:34.665Z,9.25
2022-08-27T14:32:01.526Z,5.75
2022-08-27T14:34:28.807Z,5.68
2022-08-27T14:36:55.604Z,5.90
2022-08-27T14:39:26.067Z,6.93
2022-08-27T14:41:53.521Z,6.75
2022-08-27T14:44:21.841Z,7.43
2022-08-27T14:46:48.946Z,5.47
2022-08-27T14:49:24.943Z,6.22
2022-08-27T14:51:51.881Z,7.70
2022-08-27T14:54:18.661Z,6.32
2022-08-27T14:56:45.455Z,9.48
2022-08-27T14:59:12.184Z,7.05
2022-08-27T15:01:39.291Z,7.88
2022-08-27T15:04:06.859Z,6.05
2022-08-27T15:06:33.707Z,9.48
2022-08-27T15:09:01.680Z,6.65
2022-08-27T15:11:33.859Z,7.40
2022-08-27T15:14:04.274Z,7.40
2022-08-27T15:16:31.120Z,6.80
2022-08-27T15:19:01.081Z,7.47
2022-08-27T15:21:30.347Z,7.03
2022-08-27T15:24:03.637Z,6.45
2022-08-27T15:26:31.155Z,9.60
2022-08-27T15:29:00.700Z,6.50
2022-08-27T15:31:30.123Z,8.10
2022-08-27T15:33:56.877Z,6.55
2022-08-27T15:36:23.644Z,7.85
2022-08-27T15:38:50.406Z,7.70
2022-08-27T15:41:17.680Z,9.23
2022-08-27T15:43:45.422Z,5.82
2022-08-27T15:46:12.365Z,10.20
2022-08-27T15:48:39.177Z,9.32
2022-08-27T15:51:09.560Z,6.05
2022-08-27T15:53:38.109Z,6.70
2022-08-27T15:56:06.461Z,6.35
2022-08-27T15:58:34.603Z,7.10
2022-08-27T16:01:14.504Z,4.93
2022-08-27T16:03:43.521Z,6.38
2022-08-27T16:06:10.475Z,5.80
2022-08-27T16:08:42.016Z,5.80
2022-08-27T16:11:09.254Z,5.38
2022-08-27T16:13:37.774Z,6.75
2022-08-27T16:16:06.346Z,6.35
2022-08-27T16:18:34.839Z,6.05
2022-08-27T16:21:03.504Z,4.78
2022-08-27T16:23:31.365Z,5.80
2022-08-27T16:25:58.788Z,5.38
2022-08-27T16:28:26.187Z,6.90
2022-08-27T16:30:55.667Z,4.40
2022-08-27T16:33:23.470Z,7.40
2022-08-27T16:35:50.713Z,4.32
2022-08-27T16:38:17.988Z,5.00
2022-08-27T16:40:49.257Z,4.85
2022-08-27T16:45:51.303Z,6.40
2022-08-27T16:48:37.702Z,5.43
2022-08-27T16:51:06.588Z,4.75
2022-08-27T16:53:39.678Z,6.22
2022-08-27T16:56:06.819Z,7.57
2022-08-27T16:58:33.679Z,5.65
2022-08-27T17:01:06.665Z,7.68
2022-08-27T17:03:58.205Z,8.98
2022-08-27T17:06:27.104Z,7.82
2022-08-27T17:08:55.141Z,4.53
2022-08-27T17:11:28.360Z,6.15
2022-08-27T17:14:02.202Z,5.95
2022-08-27T17:16:31.423Z,5.85
2022-08-27T17:18:59.411Z,5.78
2022-08-27T17:21:30.017Z,5.47
2022-08-27T17:23:59.466Z,6.15
2022-08-27T17:26:26.703Z,8.07
2022-08-27T17:28:53.674Z,4.57
2022-08-27T17:31:36.654Z,5.80
2022-08-27T17:34:04.263Z,6.20
2022-08-27T17:36:31.647Z,6.65
2022-08-27T17:39:00.671Z,6.47
2022-08-27T17:41:33.449Z,8.95
2022-08-27T17:44:07.712Z,9.25
2022-08-27T17:46:34.565Z,8.30
2022-08-27T17:49:01.607Z,7.68
2022-08-27T17:51:28.499Z,7.80
2022-08-27T17:54:01.541Z,6.35
2022-08-27T17:56:29.543Z,8.02
2022-08-27T17:58:56.738Z,8.00
2022-08-27T18:01:31.508Z,8.15
2022-08-27T18:03:59.656Z,8.80
2022-08-27T18:06:27.888Z,7.93
2022-08-27T18:08:54.872Z,11.05
2022-08-27T18:11:21.711Z,8.20
2022-08-27T18:13:55.209Z,8.80
2022-08-27T18:16:22.424Z,6.93
2022-08-27T18:18:49.374Z,6.20
2022-08-27T18:21:25.137Z,6.95
2022-08-27T18:23:53.775Z,8.73
2022-08-27T18:26:23.206Z,9.02
2022-08-27T18:28:50.289Z,6.95
2022-08-27T18:31:20.106Z,8.48
2022-08-27T18:33:55.833Z,5.00
2022-08-27T18:36:23.350Z,6.50
2022-08-27T18:38:50.972Z,3.83
2022-08-27T18:41:18.968Z,4.70
2022-08-27T18:43:46.514Z,3.75
2022-08-27T18:46:14.044Z,2.53
2022-08-27T18:48:40.976Z,5.75
2022-08-27T18:51:10.265Z,4.55
2022-08-27T18:53:40.511Z,4.72
2022-08-27T18:56:09.548Z,3.55
2022-08-27T18:58:38.821Z,4.40
2022-08-27T19:01:10.519Z,3.58
2022-08-27T19:03:42.026Z,2.60
2022-08-27T19:06:09.787Z,5.95
2022-08-27T19:08:38.199Z,2.63
2022-08-27T19:11:05.320Z,4.75
2022-08-27T19:13:32.154Z,5.70
2022-08-27T19:16:02.953Z,4.70
2022-08-27T19:18:32.508Z,4.00
2022-08-27T19:20:59.823Z,5.15
2022-08-27T19:23:27.118Z,4.75
2022-08-27T19:25:54.447Z,7.60
2022-08-27T19:28:26.280Z,6.35
2022-08-27T19:30:53.781Z,6.38
2022-08-27T19:33:22.383Z,3.22
2022-08-27T19:35:49.571Z,4.50
2022-08-27T19:38:16.573Z,4.72
2022-08-27T19:40:43.450Z,3.38
2022-08-27T19:43:10.253Z,6.78
2022-08-27T19:45:39.750Z,3.38
2022-08-27T19:48:08.194Z,3.97
2022-08-27T19:50:35.389Z,3.35
2022-08-27T19:53:02.264Z,4.00
2022-08-27T19:55:29.389Z,3.83
2022-08-27T19:57:56.294Z,3.72
2022-08-27T20:00:27.797Z,2.50
2022-08-27T20:05:23.097Z,4.70
2022-08-27T20:07:52.070Z,3.20
2022-08-27T20:10:25.794Z,3.05
2022-08-27T20:12:59.358Z,3.22
2022-08-27T20:15:26.327Z,1.98
2022-08-27T20:17:54.059Z,2.92
2022-08-27T20:20:23.600Z,9.40
2022-08-27T20:22:50.441Z,3.88
2022-08-27T20:25:17.359Z,2.72
2022-08-27T20:27:44.432Z,4.50
2022-08-27T20:30:13.699Z,6.05
2022-08-27T20:32:40.665Z,2.88
2022-08-27T20:35:09.904Z,4.30
2022-08-27T20:37:42.002Z,4.65
2022-08-27T20:40:12.963Z,3.70
2022-08-27T20:42:39.824Z,4.90
2022-08-27T20:45:11.777Z,5.55
2022-08-27T20:47:40.705Z,5.45
2022-08-27T20:50:08.179Z,3.17
2022-08-27T20:52:35.995Z,2.33
2022-08-27T20:55:03.681Z,5.80
2022-08-27T20:57:30.538Z,4.97
2022-08-27T21:00:16.198Z,2.72
2022-08-27T21:02:43.026Z,2.55
2022-08-27T21:05:15.371Z,4.78
2022-08-27T21:07:42.661Z,4.00
2022-08-27T21:10:09.673Z,3.40
2022-08-27T21:12:36.482Z,3.40
2022-08-27T21:15:05.525Z,2.63
2022-08-27T21:17:32.469Z,4.72
2022-08-27T21:19:59.422Z,3.50
2022-08-27T21:22:26.738Z,4.07
2022-08-27T21:24:53.948Z,6.95
2022-08-27T21:27:21.853Z,3.10
2022-08-27T21:29:49.709Z,3.53
2022-08-27T21:32:17.103Z,5.45
2022-08-27T21:34:44.170Z,2.42
2022-08-27T21:37:13.577Z,6.43
2022-08-27T21:39:43.222Z,4.68
2022-08-27T21:42:11.720Z,5.63
2022-08-27T21:44:39.188Z,4.97
2022-08-27T21:47:06.691Z,2.00
2022-08-27T21:49:33.656Z,3.88
2022-08-27T21:52:06.017Z,2.50
2022-08-27T21:54:35.554Z,4.07
2022-08-27T21:57:04.509Z,2.13
2022-08-27T21:59:32.754Z,3.00
2022-08-27T22:02:00.906Z,2.38
2022-08-27T22:04:30.592Z,4.20
2022-08-27T22:06:58.749Z,4.35
2022-08-27T22:09:25.849Z,4.47
2022-08-27T22:11:52.629Z,2.83
2022-08-27T22:14:19.476Z,3.97
2022-08-27T22:16:46.349Z,2.08
2022-08-27T22:19:13.153Z,5.00
2022-08-27T22:21:39.945Z,5.55
2022-08-27T22:24:07.089Z,3.40
2022-08-27T22:26:33.897Z,4.00
2022-08-27T22:29:01.862Z,2.30
2022-08-27T22:31:32.363Z,2.50
2022-08-27T22:33:59.912Z,3.42
2022-08-27T22:36:27.057Z,4.68
2022-08-27T22:38:53.930Z,5.10
2022-08-27T22:41:29.618Z,4.05
2022-08-27T22:43:59.637Z,2.55
2022-08-27T22:46:26.629Z,3.45
2022-08-27T22:48:53.486Z,2.50
2022-08-27T22:51:20.288Z,5.88
2022-08-27T22:53:47.056Z,5.68
2022-08-27T22:56:14.970Z,4.90
2022-08-27T22:58:45.817Z,2.60
2022-08-27T23:01:13.816Z,4.88
2022-08-27T23:03:40.700Z,2.83
2022-08-27T23:06:07.674Z,3.42
2022-08-27T23:08:34.457Z,5.68
2022-08-27T23:11:03.152Z,4.53
2022-08-27T23:13:33.834Z,4.72
2022-08-27T23:16:03.057Z,2.60
2022-08-27T23:18:30.647Z,4.03
2022-08-27T23:20:57.937Z,2.55
2022-08-27T23:23:27.639Z,3.08
2022-08-27T23:26:16.447Z,3.35
2022-08-27T23:28:44.143Z,2.85
2022-08-27T23:31:11.489Z,4.45
2022-08-27T23:33:38.488Z,4.82
2022-08-27T23:36:05.715Z,3.35
2022-08-27T23:38:33.800Z,3.95
2022-08-27T23:41:00.730Z,5.78
2022-08-27T23:43:28.473Z,5.68
2022-08-27T23:45:55.377Z,2.63
2022-08-27T23:48:22.172Z,3.63
2022-08-27T23:50:49.026Z,2.67
2022-08-27T23:53:15.867Z,5.28
2022-08-27T23:55:42.773Z,2.88
2022-08-27T23:58:10.637Z,3.60
